Time;durP1;ratioP1;P1;durP2;ratioP2;P2;SDS_P1;SDS_P2;PMS_P1;PMS_P2;Temp;Humidity;BMP_temperature;BMP_pressure;BME280_temperature;BME280_humidity;BME280_pressure;Samples;Min_cycle;Max_cycle;Signal;HPM_P1;HPM_P2
2023/02/14 00:01:21;;;;;;;12.10;9.00;;;6.50;99.90;;;;;;5013368;28;20247;-73
2023/02/14 00:03:48;;;;;;;9.93;8.90;;;6.60;99.90;;;;;;5013461;28;20181;-73
2023/02/14 00:06:14;;;;;;;12.20;8.27;;;6.60;99.90;;;;;;5012094;28;20192;-74
2023/02/14 00:08:43;;;;;;;15.10;9.07;;;6.60;99.90;;;;;;5013112;28;20419;-75
2023/02/14 00:11:09;;;;;;;12.93;8.40;;;6.50;99.90;;;;;;5013971;28;20803;-75
2023/02/14 00:13:35;;;;;;;11.67;8.67;;;6.50;99.90;;;;;;5014133;28;20434;-75
2023/02/14 00:16:00;;;;;;;10.10;8.07;;;6.50;99.90;;;;;;4994244;28;20451;-75
2023/02/14 00:19:01;;;;;;;12.03;8.10;;;6.50;99.90;;;;;;5014126;28;20189;-75
2023/02/14 00:21:11;;;;;;;10.57;7.70;;;6.60;99.90;;;;;;5013337;28;20664;-74
2023/02/14 00:23:37;;;;;;;11.23;8.40;;;6.80;99.90;;;;;;5014237;28;20442;-75
2023/02/14 00:26:03;;;;;;;12.83;7.93;;;6.70;99.90;;;;;;5013969;28;20188;-75
2023/02/14 00:28:28;;;;;;;11.77;8.50;;;6.70;99.90;;;;;;5014178;28;20530;-75
2023/02/14 00:30:56;;;;;;;11.07;8.23;;;6.70;99.90;;;;;;5013842;28;20220;-74
2023/02/14 00:33:21;;;;;;;14.17;8.17;;;6.70;99.90;;;;;;5014094;28;20196;-75
2023/02/14 00:35:47;;;;;;;14.03;8.23;;;6.70;99.90;;;;;;5014024;28;20423;-74
2023/02/14 00:38:12;;;;;;;11.97;7.17;;;6.70;99.90;;;;;;5013920;28;20234;-74
2023/02/14 00:40:38;;;;;;;9.80;7.03;;;6.70;99.90;;;;;;5013652;28;20568;-74
2023/02/14 00:43:03;;;;;;;12.37;8.00;;;6.70;99.90;;;;;;5013635;28;20184;-75
2023/02/14 00:45:29;;;;;;;12.30;8.33;;;6.80;99.90;;;;;;5013556;28;20632;-75
2023/02/14 00:47:54;;;;;;;9.53;8.20;;;6.80;99.90;;;;;;5013477;28;20199;-75
2023/02/14 00:50:20;;;;;;;9.70;6.67;;;6.80;99.90;;;;;;5013462;28;20184;-75
2023/02/14 00:52:46;;;;;;;10.03;6.60;;;6.70;99.90;;;;;;5013781;28;20241;-75
2023/02/14 00:55:11;;;;;;;11.33;7.00;;;6.70;99.90;;;;;;5013309;28;20233;-74
2023/02/14 00:57:37;;;;;;;10.33;7.23;;;6.70;99.90;;;;;;5013549;28;20263;-75
2023/02/14 01:00:03;;;;;;;14.47;7.00;;;6.70;99.90;;;;;;5013228;28;20635;-75
2023/02/14 01:02:29;;;;;;;9.00;6.97;;;6.70;99.90;;;;;;5013194;28;20192;-76
2023/02/14 01:04:54;;;;;;;9.17;6.90;;;6.60;99.90;;;;;;5013519;28;20470;-73
2023/02/14 01:07:21;;;;;;;12.13;6.77;;;6.60;99.90;;;;;;5013293;28;20188;-75
2023/02/14 01:09:47;;;;;;;11.30;8.63;;;6.50;99.90;;;;;;5013456;28;20190;-75
2023/02/14 01:12:13;;;;;;;11.73;7.20;;;6.60;99.90;;;;;;5013204;28;20927;-73
2023/02/14 01:14:38;;;;;;;11.80;6.87;;;6.60;99.90;;;;;;5013467;28;20274;-74
2023/02/14 01:17:04;;;;;;;9.50;6.93;;;6.60;99.90;;;;;;5013107;28;20400;-74
2023/02/14 01:19:29;;;;;;;11.47;7.27;;;6.60;99.90;;;;;;5013217;28;20267;-74
2023/02/14 01:21:55;;;;;;;10.70;7.50;;;6.60;99.90;;;;;;5013138;28;20669;-74
2023/02/14 01:24:20;;;;;;;13.13;8.07;;;6.60;99.90;;;;;;5013123;28;20263;-74
2023/02/14 01:26:46;;;;;;;8.20;6.60;;;6.60;99.90;;;;;;5012885;28;20647;-79
2023/02/14 01:29:11;;;;;;;9.13;7.00;;;6.70;99.90;;;;;;5012952;28;20191;-79
2023/02/14 01:31:37;;;;;;;10.40;6.00;;;6.60;99.90;;;;;;5012901;28;20239;-73
2023/02/14 01:34:03;;;;;;;9.30;6.80;;;6.60;99.90;;;;;;5012871;28;20203;-73
2023/02/14 01:36:35;;;;;;;8.83;6.23;;;6.60;99.90;;;;;;5012907;28;20268;-77
2023/02/14 01:39:03;;;;;;;8.67;5.87;;;6.60;99.90;;;;;;5013160;28;20434;-74
2023/02/14 01:41:32;;;;;;;9.00;6.53;;;6.60;99.90;;;;;;5013061;28;20467;-74
2023/02/14 01:44:01;;;;;;;9.27;5.27;;;6.50;99.90;;;;;;5012800;28;20434;-74
2023/02/14 01:46:29;;;;;;;10.50;7.07;;;6.60;99.90;;;;;;5012779;28;20420;-74
2023/02/14 01:49:00;;;;;;;8.20;5.77;;;6.60;99.90;;;;;;5012893;28;20843;-74
2023/02/14 01:51:26;;;;;;;9.03;5.63;;;6.60;99.90;;;;;;5012864;28;20415;-74
2023/02/14 01:53:52;;;;;;;10.70;6.90;;;6.70;99.90;;;;;;5012756;28;20961;-75
2023/02/14 01:56:27;;;;;;;11.13;6.97;;;6.60;99.90;;;;;;5012785;28;20184;-76
2023/02/14 01:58:57;;;;;;;12.50;5.30;;;6.60;99.90;;;;;;5011708;28;20172;-77
2023/02/14 02:01:23;;;;;;;8.20;5.50;;;6.50;99.90;;;;;;5012872;28;20487;-76
2023/02/14 02:03:54;;;;;;;7.27;5.37;;;6.50;99.90;;;;;;5012946;28;20809;-77
2023/02/14 02:06:45;;;;;;;7.27;5.87;;;6.70;99.90;;;;;;5011840;28;20189;-77
2023/02/14 02:09:14;;;;;;;8.17;5.53;;;6.70;99.90;;;;;;5007279;28;20435;-77
2023/02/14 02:11:41;;;;;;;8.93;5.70;;;6.70;99.90;;;;;;5016583;28;20557;-76
2023/02/14 02:14:15;;;;;;;9.30;6.37;;;6.70;99.90;;;;;;5016657;28;20472;-76
2023/02/14 02:16:53;;;;;;;8.37;5.90;;;6.70;99.90;;;;;;5016607;28;20537;-77
2023/02/14 02:19:24;;;;;;;6.73;4.90;;;6.90;99.90;;;;;;5016261;28;20798;-77
2023/02/14 02:22:11;;;;;;;8.40;5.97;;;7.00;99.90;;;;;;5014052;28;20488;-82
2023/02/14 02:25:00;;;;;;;7.20;5.53;;;6.90;99.90;;;;;;5015965;28;20411;-74
2023/02/14 02:27:56;;;;;;;8.20;5.40;;;6.80;99.90;;;;;;5014989;28;20418;-74
2023/02/14 02:30:59;;;;;;;7.77;5.53;;;6.80;99.90;;;;;;5014875;28;20514;-74
2023/02/14 02:33:37;;;;;;;7.73;6.70;;;6.80;99.90;;;;;;5015050;28;20870;-74
2023/02/14 02:36:17;;;;;;;7.30;5.20;;;6.80;99.90;;;;;;5013872;28;20429;-74
2023/02/14 02:39:15;;;;;;;11.67;5.30;;;6.80;99.90;;;;;;5016150;28;20794;-76
2023/02/14 02:42:03;;;;;;;7.30;6.00;;;7.00;99.90;;;;;;5008666;28;20489;-74
2023/02/14 02:44:56;;;;;;;7.80;5.60;;;7.00;99.90;;;;;;5016122;28;20423;-74
2023/02/14 02:47:37;;;;;;;10.07;6.50;;;7.10;99.90;;;;;;5015255;28;20950;-74
2023/02/14 02:53:40;;;;;;;8.37;6.10;;;7.00;99.90;;;;;;5013734;28;20462;-74
2023/02/14 02:59:20;;;;;;;7.90;6.03;;;6.90;99.90;;;;;;5014328;28;20505;-75
2023/02/14 03:02:04;;;;;;;8.17;5.93;;;6.80;99.90;;;;;;5013765;28;20474;-75
2023/02/14 03:04:52;;;;;;;8.43;6.53;;;6.80;99.90;;;;;;5015586;28;20435;-74
2023/02/14 03:07:35;;;;;;;9.80;6.33;;;6.70;99.90;;;;;;4994704;28;20444;-75
2023/02/14 03:10:11;;;;;;;9.87;6.60;;;6.70;99.90;;;;;;5013867;28;20942;-73
2023/02/14 03:13:04;;;;;;;7.80;7.00;;;6.60;99.90;;;;;;5015126;28;20442;-75
2023/02/14 03:15:54;;;;;;;7.37;6.43;;;6.60;99.90;;;;;;5015376;28;20809;-76
2023/02/14 03:18:42;;;;;;;8.47;5.80;;;6.60;99.90;;;;;;5014062;28;20473;-75
2023/02/14 03:21:24;;;;;;;9.93;7.20;;;6.50;99.90;;;;;;5014820;28;20828;-76
2023/02/14 03:24:08;;;;;;;11.47;7.20;;;6.50;99.90;;;;;;5013716;28;20794;-76
2023/02/14 03:26:44;;;;;;;9.10;6.60;;;6.50;99.90;;;;;;5014318;28;20875;-76
2023/02/14 03:29:28;;;;;;;13.63;7.53;;;6.50;99.90;;;;;;5014746;28;20809;-76
2023/02/14 03:32:22;;;;;;;9.87;6.63;;;6.50;99.90;;;;;;5014011;28;20686;-76
2023/02/14 03:35:11;;;;;;;11.63;7.10;;;6.60;99.90;;;;;;5014841;28;20427;-74
2023/02/14 03:37:48;;;;;;;9.13;6.33;;;6.70;99.90;;;;;;5015107;28;20450;-73
2023/02/14 05:30:39;;;;;;;10.57;7.00;;;5.70;99.90;;;;;;5955800;22;20472;-73
2023/02/14 05:33:05;;;;;;;8.73;6.93;;;5.60;99.90;;;;;;4999250;28;20440;-73
2023/02/14 05:35:31;;;;;;;10.00;7.37;;;5.60;99.90;;;;;;5004587;28;20168;-81
2023/02/14 05:37:57;;;;;;;11.33;6.60;;;5.50;99.90;;;;;;5004418;28;20194;-80
2023/02/14 05:40:23;;;;;;;11.00;7.17;;;5.50;99.90;;;;;;5004675;28;20208;-76
2023/02/14 05:42:50;;;;;;;10.37;6.23;;;5.50;99.90;;;;;;5007445;28;20192;-81
2023/02/14 05:45:16;;;;;;;12.63;7.20;;;5.60;99.90;;;;;;5003488;28;20467;-79
2023/02/14 05:47:41;;;;;;;11.43;8.17;;;5.50;99.90;;;;;;4996084;28;20475;-75
2023/02/14 05:50:07;;;;;;;14.93;7.77;;;5.40;99.90;;;;;;4998542;28;20189;-76
2023/02/14 05:52:33;;;;;;;13.53;8.73;;;5.40;99.90;;;;;;4998611;28;20195;-75
2023/02/14 05:54:59;;;;;;;13.47;9.10;;;5.40;99.90;;;;;;4982256;28;21133;-75
2023/02/14 05:57:24;;;;;;;11.60;8.03;;;5.40;99.90;;;;;;4999326;28;20439;-75
2023/02/14 05:59:50;;;;;;;13.07;8.03;;;5.40;99.90;;;;;;4997418;28;20734;-75
2023/02/14 06:02:15;;;;;;;15.30;7.47;;;5.40;99.90;;;;;;4996629;28;20216;-74
2023/02/14 06:04:41;;;;;;;12.47;8.37;;;5.40;99.90;;;;;;5006670;28;20176;-74
2023/02/14 06:07:07;;;;;;;15.53;9.30;;;5.40;99.90;;;;;;5010821;28;20346;-74
2023/02/14 06:09:32;;;;;;;12.10;8.77;;;5.40;99.90;;;;;;5011839;28;20187;-74
2023/02/14 06:11:58;;;;;;;13.33;8.40;;;5.40;99.90;;;;;;5013612;28;20218;-74
2023/02/14 06:14:24;;;;;;;12.10;7.43;;;5.30;99.90;;;;;;5006777;28;20217;-73
2023/02/14 06:16:49;;;;;;;15.53;8.07;;;5.30;99.90;;;;;;5002888;28;20226;-74
2023/02/14 06:19:15;;;;;;;13.37;8.73;;;5.20;99.90;;;;;;5000151;28;20639;-74
2023/02/14 06:21:40;;;;;;;11.80;8.97;;;5.20;99.90;;;;;;5002603;28;20395;-73
2023/02/14 06:24:06;;;;;;;21.33;10.20;;;5.10;99.90;;;;;;5006271;28;20184;-74
2023/02/14 06:26:34;;;;;;;14.20;8.67;;;5.10;99.90;;;;;;5007659;28;20216;-73
2023/02/14 06:29:00;;;;;;;16.87;9.80;;;5.10;99.90;;;;;;5007505;28;20263;-73
2023/02/14 06:31:26;;;;;;;12.80;8.00;;;5.20;99.90;;;;;;5005981;28;20555;-73
2023/02/14 06:33:52;;;;;;;14.23;8.80;;;5.20;99.90;;;;;;5014277;28;20431;-74
2023/02/14 06:36:18;;;;;;;12.77;8.57;;;5.20;99.90;;;;;;5013582;28;20212;-73
2023/02/14 06:38:44;;;;;;;11.70;9.23;;;5.20;99.90;;;;;;4995778;28;20441;-73
2023/02/14 06:41:10;;;;;;;15.17;9.60;;;5.20;99.90;;;;;;5009242;28;20474;-74
2023/02/14 06:43:37;;;;;;;13.20;8.70;;;5.10;99.90;;;;;;5010873;28;20176;-73
2023/02/14 06:46:02;;;;;;;15.73;9.60;;;5.10;99.90;;;;;;5005174;28;21952;-73
2023/02/14 06:48:28;;;;;;;11.60;8.30;;;5.20;99.90;;;;;;5003228;28;20441;-74
2023/02/14 06:50:54;;;;;;;13.10;9.50;;;5.20;99.90;;;;;;5005202;28;20446;-73
2023/02/14 06:53:20;;;;;;;13.90;9.57;;;5.20;99.90;;;;;;5007522;28;20510;-73
2023/02/14 06:55:46;;;;;;;11.87;8.00;;;5.20;99.90;;;;;;5007824;28;20527;-73
2023/02/14 06:58:12;;;;;;;15.67;8.30;;;5.20;99.90;;;;;;5007176;28;20447;-74
2023/02/14 07:00:41;;;;;;;12.37;8.60;;;5.20;99.90;;;;;;5007716;28;20215;-74
2023/02/14 07:03:07;;;;;;;14.77;9.03;;;5.20;99.90;;;;;;5005767;28;20520;-73
2023/02/14 07:05:33;;;;;;;15.53;9.87;;;5.20;99.90;;;;;;5005611;28;20439;-73
2023/02/14 07:07:59;;;;;;;14.87;8.70;;;5.10;99.90;;;;;;4999785;28;20443;-73
2023/02/14 07:10:25;;;;;;;14.83;8.13;;;5.20;99.90;;;;;;5008900;28;20438;-73
2023/02/14 07:12:51;;;;;;;13.73;8.50;;;5.20;99.90;;;;;;5004206;28;20458;-74
2023/02/14 07:15:16;;;;;;;15.23;8.53;;;5.10;99.90;;;;;;5009329;28;20192;-73
2023/02/14 07:17:43;;;;;;;17.53;9.33;;;5.10;99.90;;;;;;5000979;28;20189;-74
2023/02/14 07:20:09;;;;;;;10.07;8.40;;;5.20;99.90;;;;;;5008666;28;20596;-74
2023/02/14 07:22:36;;;;;;;16.90;10.70;;;5.10;99.90;;;;;;5010063;28;20443;-73
2023/02/14 07:25:03;;;;;;;13.73;9.40;;;5.20;99.90;;;;;;5008624;28;20443;-74
2023/02/14 07:27:29;;;;;;;22.30;9.67;;;5.20;99.90;;;;;;5006463;28;20444;-73
2023/02/14 07:29:54;;;;;;;18.33;10.50;;;5.10;99.90;;;;;;5007784;28;20454;-74
2023/02/14 07:32:22;;;;;;;18.80;12.00;;;5.10;99.90;;;;;;5012715;28;20228;-74
2023/02/14 07:34:48;;;;;;;19.73;11.63;;;5.20;99.90;;;;;;5008854;28;20187;-75
2023/02/14 07:37:13;;;;;;;14.97;10.33;;;5.20;99.90;;;;;;5010602;28;20518;-74
2023/02/14 07:39:39;;;;;;;17.87;12.30;;;5.20;99.90;;;;;;5011913;28;20427;-74
2023/02/14 07:42:05;;;;;;;17.93;10.17;;;5.20;99.90;;;;;;5011999;28;20223;-74
2023/02/14 07:44:30;;;;;;;19.37;11.90;;;5.30;99.90;;;;;;5008518;28;20183;-72
2023/02/14 07:46:56;;;;;;;16.40;12.03;;;5.50;99.90;;;;;;5008576;28;20454;-73
2023/02/14 07:49:21;;;;;;;21.63;11.27;;;5.70;99.90;;;;;;5012651;28;20191;-73
2023/02/14 07:51:47;;;;;;;14.40;11.10;;;5.90;99.90;;;;;;5012400;28;20176;-72
2023/02/14 07:54:13;;;;;;;16.48;11.75;;;6.10;99.90;;;;;;5011583;28;20427;-74
2023/02/14 07:56:38;;;;;;;20.45;13.70;;;6.30;99.90;;;;;;5006262;28;20446;-72
2023/02/14 07:59:04;;;;;;;18.30;12.53;;;6.60;99.90;;;;;;5005543;28;20180;-75
2023/02/14 08:01:29;;;;;;;18.83;10.97;;;6.90;99.90;;;;;;5002601;28;20239;-77
2023/02/14 08:03:55;;;;;;;15.67;12.00;;;7.20;99.90;;;;;;4991946;28;20177;-74
2023/02/14 08:06:21;;;;;;;15.57;12.00;;;7.40;99.90;;;;;;5001743;28;20185;-75
2023/02/14 08:08:47;;;;;;;26.57;13.00;;;7.60;99.90;;;;;;5010789;28;20192;-75
2023/02/14 08:12:57;;;;;;;16.70;11.80;;;7.80;99.90;;;;;;5008290;28;20531;-76
2023/02/14 08:14:02;;;;;;;15.27;11.40;;;7.90;99.90;;;;;;5008620;28;20466;-77
2023/02/14 08:16:28;;;;;;;21.43;12.97;;;8.20;99.90;;;;;;4989199;28;20439;-77
2023/02/14 08:18:54;;;;;;;18.07;13.20;;;8.30;99.90;;;;;;4995139;28;21024;-77
2023/02/14 08:21:19;;;;;;;26.17;13.73;;;8.40;99.90;;;;;;5009156;28;20208;-77
2023/02/14 08:23:45;;;;;;;17.13;12.17;;;8.50;99.90;;;;;;5008007;28;20184;-77
2023/02/14 08:26:10;;;;;;;22.10;13.00;;;8.70;99.90;;;;;;5009584;28;20172;-76
2023/02/14 08:28:36;;;;;;;17.67;12.57;;;8.90;99.90;;;;;;5004427;28;20193;-79
2023/02/14 08:31:03;;;;;;;17.43;12.93;;;9.00;99.90;;;;;;5003667;28;20230;-78
2023/02/14 08:33:28;;;;;;;17.83;13.20;;;9.10;99.90;;;;;;5004193;28;20207;-77
2023/02/14 08:35:54;;;;;;;22.80;11.87;;;9.30;99.90;;;;;;4997082;28;20440;-77
2023/02/14 08:38:20;;;;;;;21.63;12.33;;;9.40;99.90;;;;;;5003296;28;20185;-77
2023/02/14 08:40:46;;;;;;;21.60;11.40;;;9.50;99.90;;;;;;5003296;28;20686;-80
2023/02/14 08:43:11;;;;;;;15.87;10.10;;;9.70;99.90;;;;;;5007291;28;20184;-79
2023/02/14 08:45:38;;;;;;;20.60;13.70;;;9.80;99.90;;;;;;5011071;28;20595;-76
2023/02/14 08:48:06;;;;;;;16.83;11.30;;;9.90;99.90;;;;;;5007474;28;20207;-76
2023/02/14 08:50:33;;;;;;;17.50;10.10;;;10.10;99.90;;;;;;5005499;28;20481;-76
2023/02/14 08:52:58;;;;;;;17.97;12.27;;;10.20;99.90;;;;;;5007870;28;20443;-73
2023/02/14 08:55:25;;;;;;;17.50;11.67;;;10.40;99.90;;;;;;5006707;28;20431;-76
2023/02/14 08:57:50;;;;;;;13.53;9.50;;;10.50;99.90;;;;;;5006623;28;20192;-74
2023/02/14 09:00:16;;;;;;;18.03;9.43;;;10.70;99.90;;;;;;5000549;28;20939;-83
2023/02/14 09:02:42;;;;;;;12.90;9.17;;;10.70;99.90;;;;;;5006011;28;20191;-82
2023/02/14 09:05:09;;;;;;;21.43;11.57;;;10.80;99.90;;;;;;5009513;28;20922;-80
2023/02/14 09:07:35;;;;;;;15.87;9.80;;;11.00;99.90;;;;;;5006857;28;20200;-83
2023/02/14 09:10:00;;;;;;;14.10;9.00;;;11.20;99.90;;;;;;5004227;28;20944;-85
2023/02/14 09:12:26;;;;;;;20.23;10.30;;;11.50;99.90;;;;;;5010526;28;20187;-84
2023/02/14 09:14:52;;;;;;;19.27;11.97;;;11.70;99.90;;;;;;5004403;28;20191;-80
2023/02/14 09:17:18;;;;;;;21.97;10.67;;;11.90;99.90;;;;;;5007628;28;20208;-73
2023/02/14 09:19:43;;;;;;;17.13;11.60;;;12.00;99.90;;;;;;5002013;28;20196;-72
2023/02/14 09:22:10;;;;;;;14.70;10.87;;;12.10;99.90;;;;;;5009047;28;20493;-73
2023/02/14 09:24:38;;;;;;;15.53;11.70;;;12.10;99.90;;;;;;5005920;28;20189;-73
2023/02/14 09:27:04;;;;;;;17.93;12.37;;;12.00;99.90;;;;;;5003574;28;20838;-74
2023/02/14 09:29:31;;;;;;;18.60;11.57;;;12.00;99.90;;;;;;4995862;28;20441;-73
2023/02/14 09:31:58;;;;;;;21.33;13.13;;;12.00;99.90;;;;;;4999116;28;20507;-73
2023/02/14 09:34:25;;;;;;;17.17;11.73;;;12.00;99.90;;;;;;5004827;28;20435;-75
2023/02/14 09:39:38;;;;;;;18.57;10.90;;;12.00;99.90;;;;;;5004885;28;20431;-73
2023/02/14 09:42:17;;;;;;;15.17;10.23;;;12.10;99.90;;;;;;5003455;28;20823;-74
2023/02/14 09:45:04;;;;;;;17.87;9.37;;;12.10;99.90;;;;;;5005577;28;20515;-75
2023/02/14 09:47:38;;;;;;;12.07;8.70;;;12.10;99.90;;;;;;5003739;28;20440;-73
2023/02/14 09:50:12;;;;;;;12.00;8.23;;;12.10;99.90;;;;;;5004503;28;20473;-73
2023/02/14 09:52:38;;;;;;;11.80;9.30;;;12.20;99.90;;;;;;5006226;28;20672;-73
2023/02/14 09:55:11;;;;;;;17.93;9.90;;;12.40;99.90;;;;;;5002704;28;20424;-72
2023/02/14 09:58:02;;;;;;;12.83;9.17;;;12.40;99.90;;;;;;4996986;28;20192;-73
2023/02/14 10:00:44;;;;;;;19.27;8.57;;;12.40;99.90;;;;;;5002272;28;20977;-73
2023/02/14 10:03:35;;;;;;;9.53;7.83;;;12.50;99.90;;;;;;5008943;28;20427;-72
2023/02/14 10:06:09;;;;;;;15.90;8.50;;;12.50;99.90;;;;;;4992060;28;20470;-71
2023/02/14 10:08:47;;;;;;;12.90;9.57;;;12.70;99.90;;;;;;4998428;28;20870;-71
2023/02/14 10:11:35;;;;;;;19.83;10.60;;;12.70;99.90;;;;;;5003603;28;20544;-70
2023/02/14 10:14:16;;;;;;;17.90;9.50;;;12.70;99.90;;;;;;4996108;28;20453;-70
2023/02/14 10:16:52;;;;;;;12.68;9.70;;;12.70;99.90;;;;;;5008077;28;20528;-71
2023/02/14 10:19:49;;;;;;;17.60;10.50;;;12.80;99.90;;;;;;5008872;28;20180;-69
2023/02/14 10:22:17;;;;;;;12.03;7.53;;;12.80;99.90;;;;;;5003184;28;20919;-69
2023/02/14 10:24:46;;;;;;;13.00;8.90;;;12.80;99.90;;;;;;4995101;28;20440;-70
2023/02/14 10:27:33;;;;;;;12.03;8.13;;;12.80;99.90;;;;;;5003976;28;20466;-70
2023/02/14 10:30:01;;;;;;;10.80;8.23;;;12.70;99.90;;;;;;4998488;28;20450;-69
2023/02/14 10:32:42;;;;;;;15.47;9.70;;;12.80;99.90;;;;;;5009191;28;20520;-70
2023/02/14 10:35:20;;;;;;;11.60;8.40;;;12.80;99.90;;;;;;5012598;28;20427;-70
2023/02/14 10:38:18;;;;;;;12.60;8.80;;;12.80;99.90;;;;;;5009562;28;20455;-70
2023/02/14 10:41:08;;;;;;;18.67;7.87;;;12.90;99.90;;;;;;5009099;28;21038;-72
2023/02/14 10:43:39;;;;;;;14.10;8.57;;;13.00;99.90;;;;;;5010192;28;20434;-71
2023/02/14 10:46:32;;;;;;;10.20;7.53;;;13.10;99.90;;;;;;5008468;28;20532;-69
2023/02/14 10:49:07;;;;;;;10.20;7.37;;;13.10;99.90;;;;;;5006179;28;20435;-71
2023/02/14 10:51:56;;;;;;;10.47;6.90;;;13.20;99.90;;;;;;4990520;28;20427;-72
2023/02/14 10:54:37;;;;;;;10.10;6.97;;;13.30;99.90;;;;;;5001630;28;20459;-71
2023/02/14 10:57:08;;;;;;;12.37;7.90;;;13.30;99.90;;;;;;5009686;28;20858;-71
2023/02/14 10:59:58;;;;;;;10.53;7.03;;;13.30;99.90;;;;;;5011469;28;20427;-71
2023/02/14 11:02:38;;;;;;;9.33;6.20;;;13.40;99.90;;;;;;5011555;28;20970;-70
2023/02/14 11:05:05;;;;;;;11.13;7.43;;;13.50;99.90;;;;;;5011325;28;20430;-71
2023/02/14 11:07:31;;;;;;;10.93;6.60;;;13.60;99.90;;;;;;5007105;28;20438;-71
2023/02/14 11:09:57;;;;;;;8.17;5.87;;;13.60;99.90;;;;;;5010842;28;20507;-68
2023/02/14 11:12:34;;;;;;;9.53;7.10;;;13.60;99.90;;;;;;5009771;28;20955;-69
2023/02/14 11:15:29;;;;;;;13.50;7.53;;;13.70;99.90;;;;;;5011069;28;20587;-69
2023/02/14 11:18:22;;;;;;;12.03;6.80;;;13.70;99.90;;;;;;5010776;28;20431;-72
2023/02/14 11:21:06;;;;;;;11.77;7.23;;;13.80;99.90;;;;;;5007628;28;20471;-72
2023/02/14 11:23:38;;;;;;;16.37;8.27;;;13.80;99.90;;;;;;5008242;28;21001;-72
2023/02/14 11:26:16;;;;;;;10.70;6.00;;;13.80;99.90;;;;;;5009139;28;20430;-69
2023/02/14 11:29:15;;;;;;;10.43;7.30;;;13.80;99.90;;;;;;5008290;28;20478;-69
2023/02/14 11:31:41;;;;;;;8.63;6.60;;;13.90;99.90;;;;;;5011499;28;20465;-70
2023/02/14 11:34:30;;;;;;;9.00;6.67;;;14.10;99.90;;;;;;5012566;28;20497;-69
2023/02/14 11:36:56;;;;;;;11.20;6.87;;;14.20;99.90;;;;;;5010602;28;20852;-68
2023/02/14 11:39:29;;;;;;;8.30;6.23;;;14.30;99.90;;;;;;4993097;28;20427;-68
2023/02/14 11:42:02;;;;;;;10.60;6.00;;;14.40;99.90;;;;;;5004548;28;20215;-69
2023/02/14 11:44:31;;;;;;;8.17;6.03;;;14.50;99.90;;;;;;5007661;28;20444;-69
2023/02/14 11:47:30;;;;;;;10.03;6.10;;;14.70;99.90;;;;;;5006982;28;20485;-70
2023/02/14 11:50:04;;;;;;;8.30;6.20;;;14.80;99.80;;;;;;4986017;28;20490;-71
2023/02/14 11:52:32;;;;;;;7.67;6.43;;;14.90;98.00;;;;;;4991002;28;20443;-71
2023/02/14 11:54:59;;;;;;;7.53;6.00;;;15.00;97.80;;;;;;5009261;28;20937;-71
2023/02/14 11:57:32;;;;;;;12.30;6.77;;;15.00;97.80;;;;;;5010173;28;20957;-74
2023/02/14 12:00:03;;;;;;;9.40;6.10;;;15.20;98.00;;;;;;5011950;28;20424;-71
2023/02/14 12:02:40;;;;;;;7.80;6.27;;;15.50;98.50;;;;;;5011039;28;20961;-71
2023/02/14 12:05:15;;;;;;;8.63;6.00;;;15.70;96.30;;;;;;5010101;28;20530;-70
2023/02/14 12:07:43;;;;;;;11.97;6.70;;;15.80;95.40;;;;;;5010579;28;20956;-71
2023/02/14 12:10:22;;;;;;;7.50;6.00;;;16.10;96.10;;;;;;5009406;28;20495;-70
2023/02/14 12:13:21;;;;;;;8.00;5.10;;;16.50;95.00;;;;;;4992032;28;20497;-70
2023/02/14 12:15:56;;;;;;;8.03;5.70;;;16.80;92.60;;;;;;5007631;28;20786;-70
2023/02/14 12:18:24;;;;;;;8.30;5.70;;;17.00;90.20;;;;;;5008613;28;20427;-71
2023/02/14 12:21:17;;;;;;;8.43;6.03;;;17.20;88.00;;;;;;5007446;28;20464;-71
2023/02/14 12:23:46;;;;;;;5.70;4.70;;;17.20;86.30;;;;;;5010319;28;20455;-71
2023/02/14 12:26:25;;;;;;;6.93;4.37;;;16.80;85.70;;;;;;5013595;28;20476;-70
2023/02/14 12:29:00;;;;;;;7.23;5.80;;;16.90;86.10;;;;;;5011780;28;20438;-70
2023/02/14 12:31:26;;;;;;;11.37;5.80;;;17.00;85.10;;;;;;5010940;28;20474;-71
2023/02/14 12:33:52;;;;;;;8.63;5.57;;;17.00;85.90;;;;;;5010784;28;20806;-73
2023/02/14 12:36:48;;;;;;;6.17;4.83;;;17.00;83.60;;;;;;4997248;28;20233;-72
2023/02/14 12:39:17;;;;;;;9.70;5.43;;;16.70;83.90;;;;;;4993901;28;20460;-72
2023/02/14 12:42:11;;;;;;;6.90;5.50;;;16.70;83.90;;;;;;5002463;28;20560;-72
2023/02/14 12:44:42;;;;;;;7.03;5.70;;;16.70;84.50;;;;;;4990937;28;20459;-72
2023/02/14 12:47:15;;;;;;;6.33;4.80;;;16.50;86.10;;;;;;5002118;28;20491;-73
2023/02/14 12:50:09;;;;;;;8.93;5.10;;;16.50;88.40;;;;;;4997719;28;20999;-73
2023/02/14 12:53:06;;;;;;;11.03;5.07;;;16.60;88.00;;;;;;5007485;28;20505;-72
2023/02/14 12:55:54;;;;;;;6.27;4.23;;;16.60;86.80;;;;;;5010836;28;20447;-73
2023/02/14 12:58:38;;;;;;;5.60;4.30;;;16.70;87.60;;;;;;5009050;28;20432;-73
2023/02/14 13:01:31;;;;;;;6.90;4.73;;;16.70;84.40;;;;;;5008426;28;20474;-73
2023/02/14 13:04:20;;;;;;;6.97;5.00;;;16.60;85.20;;;;;;5004952;28;20527;-72
2023/02/14 13:07:11;;;;;;;6.30;4.30;;;16.80;85.60;;;;;;4999836;28;20487;-73
2023/02/14 13:09:58;;;;;;;6.87;4.23;;;16.90;87.30;;;;;;4987716;28;20431;-72
2023/02/14 13:12:53;;;;;;;11.67;4.70;;;17.00;88.10;;;;;;5001952;28;20439;-72
2023/02/14 13:15:29;;;;;;;5.47;4.07;;;17.10;85.60;;;;;;4999394;28;20444;-74
2023/02/14 13:18:06;;;;;;;7.07;4.90;;;17.20;85.10;;;;;;5007082;28;20474;-71
2023/02/14 13:20:41;;;;;;;7.50;4.60;;;17.30;85.70;;;;;;5003414;28;20436;-71
2023/02/14 13:23:25;;;;;;;6.17;3.80;;;17.50;84.20;;;;;;5008556;28;20500;-71
2023/02/14 13:25:59;;;;;;;6.93;4.13;;;17.60;84.30;;;;;;5009263;28;20950;-71
2023/02/14 13:28:27;;;;;;;9.80;4.35;;;17.80;83.30;;;;;;5010367;28;20427;-69
2023/02/14 13:30:54;;;;;;;8.10;5.20;;;17.90;86.60;;;;;;5007266;28;20525;-74
2023/02/14 13:33:27;;;;;;;6.20;4.07;;;17.90;79.10;;;;;;5001742;28;20193;-69
2023/02/14 13:36:03;;;;;;;235.30;20.23;;;17.60;75.10;;;;;;4996700;28;20432;-69
2023/02/14 13:38:30;;;;;;;71.13;11.57;;;17.50;79.00;;;;;;4995174;28;20436;-67
2023/02/14 13:41:01;;;;;;;10.63;4.73;;;17.70;81.80;;;;;;5005211;28;20475;-67
2023/02/14 13:44:00;;;;;;;12.57;5.47;;;17.70;88.80;;;;;;5005090;28;20454;-69
2023/02/14 13:46:31;;;;;;;12.87;6.57;;;17.80;99.90;;;;;;5002025;28;21081;-67
2023/02/14 13:49:16;;;;;;;14.20;7.33;;;18.00;99.90;;;;;;4983567;28;20436;-67
2023/02/14 13:51:53;;;;;;;17.40;6.27;;;17.90;91.20;;;;;;5005561;28;20427;-67
2023/02/14 13:54:32;;;;;;;46.00;10.83;;;17.80;88.70;;;;;;5000876;28;20442;-68
2023/02/14 13:57:00;;;;;;;7.80;5.60;;;17.80;87.10;;;;;;5001798;28;20431;-68
2023/02/14 13:59:28;;;;;;;29.77;8.10;;;17.60;88.70;;;;;;5005586;28;20440;-71
2023/02/14 14:01:53;;;;;;;10.57;5.93;;;17.50;88.10;;;;;;4990646;28;20480;-69
2023/02/14 14:04:25;;;;;;;11.80;6.27;;;17.40;86.40;;;;;;5001747;28;20797;-67
2023/02/14 14:07:21;;;;;;;13.90;7.10;;;17.20;88.50;;;;;;5010062;28;20188;-66
2023/02/14 14:09:50;;;;;;;12.73;5.90;;;17.10;88.90;;;;;;5002322;28;20435;-67
2023/02/14 14:12:28;;;;;;;17.23;6.27;;;17.00;89.30;;;;;;5006788;28;20832;-69
2023/02/14 14:15:05;;;;;;;11.07;6.00;;;17.00;88.30;;;;;;5009510;28;20437;-68
2023/02/14 14:17:32;;;;;;;12.93;7.27;;;16.90;87.60;;;;;;5009093;28;20567;-68
2023/02/14 14:19:59;;;;;;;13.87;5.80;;;16.80;87.30;;;;;;5011092;28;20462;-71
2023/02/14 14:22:26;;;;;;;19.23;5.73;;;16.80;87.30;;;;;;5008554;28;20471;-70
2023/02/14 14:24:58;;;;;;;9.47;4.90;;;16.70;89.40;;;;;;5012739;28;20443;-69
2023/02/14 14:27:29;;;;;;;10.70;6.00;;;16.60;90.00;;;;;;5016974;28;20540;-69
2023/02/14 14:29:57;;;;;;;10.80;6.10;;;16.50;90.90;;;;;;5011423;28;20438;-70
2023/02/14 14:32:35;;;;;;;7.60;5.87;;;16.40;90.20;;;;;;5005644;28;20479;-69
2023/02/14 14:35:04;;;;;;;10.60;6.07;;;16.40;89.60;;;;;;5013464;28;20459;-70
2023/02/14 14:37:34;;;;;;;10.57;6.30;;;16.40;90.60;;;;;;5007046;28;20955;-70
2023/02/14 14:40:04;;;;;;;9.00;6.70;;;16.40;90.30;;;;;;5011734;28;20441;-70
2023/02/14 14:42:38;;;;;;;11.63;5.90;;;16.30;90.70;;;;;;4990308;28;20502;-70
2023/02/14 14:45:17;;;;;;;7.63;5.13;;;16.20;90.10;;;;;;5010049;28;20430;-73
2023/02/14 14:47:45;;;;;;;12.90;6.30;;;16.20;91.80;;;;;;5014493;28;20441;-70
2023/02/14 14:50:22;;;;;;;7.80;5.73;;;16.10;91.20;;;;;;5013079;28;20518;-70
2023/02/14 14:52:52;;;;;;;6.33;4.80;;;16.10;91.30;;;;;;5012064;28;20799;-70
2023/02/14 14:55:42;;;;;;;10.50;5.47;;;16.00;91.20;;;;;;4986079;28;20431;-69
2023/02/14 14:58:30;;;;;;;11.47;5.83;;;15.90;91.30;;;;;;5002514;28;20428;-69
2023/02/14 15:00:55;;;;;;;14.00;6.90;;;15.80;93.40;;;;;;5002935;28;20529;-70
2023/02/14 15:03:24;;;;;;;10.97;8.13;;;15.80;91.60;;;;;;5005047;28;20930;-70
2023/02/14 15:05:50;;;;;;;12.93;8.57;;;15.70;91.90;;;;;;5004489;28;20196;-69
2023/02/14 15:08:21;;;;;;;14.40;8.87;;;15.70;93.00;;;;;;5008576;28;20502;-69
2023/02/14 15:10:57;;;;;;;13.00;8.33;;;15.60;93.50;;;;;;5007341;28;21196;-69